createdAt,value
2018-02-20T00:00:37.678Z,-0.06
2018-02-20T00:03:05.113Z,-0.06
2018-02-20T00:05:32.526Z,-0.07
2018-02-20T00:07:59.934Z,-0.08
2018-02-20T00:10:27.356Z,-0.15
2018-02-20T00:12:54.756Z,-0.12
2018-02-20T00:15:22.168Z,-0.13
2018-02-20T00:17:49.569Z,-0.20
2018-02-20T00:20:16.999Z,-0.26
2018-02-20T00:22:44.411Z,-0.27
2018-02-20T00:25:11.825Z,-0.29
2018-02-20T00:27:39.229Z,-0.34
2018-02-20T00:30:06.635Z,-0.31
2018-02-20T00:32:34.049Z,-0.29
2018-02-20T00:35:01.462Z,-0.26
2018-02-20T00:37:28.871Z,-0.19
2018-02-20T00:39:56.280Z,-0.30
2018-02-20T00:42:23.701Z,-0.30
2018-02-20T00:44:51.105Z,-0.27
2018-02-20T00:47:18.521Z,-0.24
2018-02-20T00:49:45.936Z,-0.20
2018-02-20T00:52:13.355Z,-0.26
2018-02-20T00:54:40.762Z,-0.20
2018-02-20T00:57:08.176Z,-0.32
2018-02-20T00:59:35.588Z,-0.33
2018-02-20T01:02:03.952Z,-0.33
2018-02-20T01:04:31.350Z,-0.33
2018-02-20T01:06:58.778Z,-0.29
2018-02-20T01:09:26.187Z,-0.25
2018-02-20T01:11:53.611Z,-0.37
2018-02-20T01:14:21.012Z,-0.34
2018-02-20T01:16:48.430Z,-0.40
2018-02-20T01:19:15.828Z,-0.34
2018-02-20T01:21:43.245Z,-0.40
2018-02-20T01:24:10.644Z,-0.48
2018-02-20T01:26:38.061Z,-0.39
2018-02-20T01:29:05.469Z,-0.39
2018-02-20T01:31:32.880Z,-0.44
2018-02-20T01:34:00.292Z,-0.45
2018-02-20T01:36:27.709Z,-0.44
2018-02-20T01:38:55.113Z,-0.48
2018-02-20T01:41:22.534Z,-0.54
2018-02-20T01:43:49.943Z,-0.48
2018-02-20T01:46:17.357Z,-0.45
2018-02-20T01:48:44.765Z,-0.43
2018-02-20T01:51:12.189Z,-0.42
2018-02-20T01:53:39.598Z,-0.41
2018-02-20T01:56:07.013Z,-0.48
2018-02-20T01:58:34.429Z,-0.50
2018-02-20T02:01:01.848Z,-0.46
2018-02-20T02:03:29.274Z,-0.47
2018-02-20T02:05:56.682Z,-0.51
2018-02-20T02:08:24.101Z,-0.51
2018-02-20T02:10:51.523Z,-0.53
2018-02-20T02:13:18.940Z,-0.50
2018-02-20T02:15:46.345Z,-0.55
2018-02-20T02:18:13.763Z,-0.55
2018-02-20T02:20:41.173Z,-0.60
2018-02-20T02:23:08.590Z,-0.56
2018-02-20T02:25:35.996Z,-0.53
2018-02-20T02:28:03.424Z,-0.58
2018-02-20T02:30:30.822Z,-0.55
2018-02-20T02:32:58.566Z,-0.53
2018-02-20T02:35:25.969Z,-0.54
2018-02-20T02:37:53.397Z,-0.49
2018-02-20T02:40:20.820Z,-0.58
2018-02-20T02:42:48.238Z,-0.54
2018-02-20T02:45:15.649Z,-0.59
2018-02-20T02:47:43.064Z,-0.55
2018-02-20T02:50:10.466Z,-0.50
2018-02-20T02:52:38.110Z,-0.54
2018-02-20T02:55:05.523Z,-0.57
2018-02-20T02:57:32.930Z,-0.62
2018-02-20T03:00:00.344Z,-0.61
2018-02-20T03:02:27.753Z,-0.60
2018-02-20T03:04:55.160Z,-0.59
2018-02-20T03:07:22.584Z,-0.62
2018-02-20T03:09:49.994Z,-0.63
2018-02-20T03:12:17.411Z,-0.59
2018-02-20T03:14:44.816Z,-0.48
2018-02-20T03:17:12.242Z,-0.51
2018-02-20T03:19:39.645Z,-0.56
2018-02-20T03:22:07.081Z,-0.53
2018-02-20T03:24:34.496Z,-0.62
2018-02-20T03:27:01.893Z,-0.47
2018-02-20T03:29:29.310Z,-0.59
2018-02-20T03:31:56.729Z,-0.46
2018-02-20T03:34:24.146Z,-0.55
2018-02-20T03:36:51.550Z,-0.55
2018-02-20T03:39:18.969Z,-0.54
2018-02-20T03:41:46.375Z,-0.52
2018-02-20T03:44:13.789Z,-0.53
2018-02-20T03:46:41.207Z,-0.44
2018-02-20T03:49:08.634Z,-0.45
2018-02-20T03:51:36.041Z,-0.45
2018-02-20T03:54:03.473Z,-0.45
2018-02-20T03:56:30.862Z,-0.45
2018-02-20T03:58:58.281Z,-0.44
2018-02-20T04:01:25.688Z,-0.53
2018-02-20T04:03:53.129Z,-0.41
2018-02-20T04:06:20.555Z,-0.33
2018-02-20T04:08:47.980Z,-0.20
2018-02-20T04:11:15.395Z,-0.20
2018-02-20T04:13:42.801Z,0.02
2018-02-20T04:16:10.207Z,0.21
2018-02-20T04:18:37.618Z,0.26
2018-02-20T04:21:05.025Z,0.10
2018-02-20T04:23:32.453Z,-0.06
2018-02-20T04:25:59.877Z,-0.27
2018-02-20T04:28:27.290Z,-0.31
2018-02-20T04:30:54.706Z,-0.17
2018-02-20T04:33:22.121Z,-0.22
2018-02-20T04:35:49.539Z,-0.12
2018-02-20T04:38:16.949Z,-0.05
2018-02-20T04:40:44.361Z,0.10
2018-02-20T04:43:11.828Z,0.14
2018-02-20T04:45:39.177Z,0.03
2018-02-20T04:48:06.597Z,-0.16
2018-02-20T04:50:34.005Z,-0.31
2018-02-20T04:53:01.441Z,-0.40
2018-02-20T04:55:28.896Z,-0.46
2018-02-20T04:57:56.830Z,-0.45
2018-02-20T05:00:24.249Z,-0.32
2018-02-20T05:02:51.665Z,-0.35
2018-02-20T05:05:19.086Z,-0.30
2018-02-20T05:07:46.503Z,-0.30
2018-02-20T05:10:14.808Z,-0.25
2018-02-20T05:12:42.229Z,-0.29
2018-02-20T05:15:09.644Z,-0.57
2018-02-20T05:17:37.048Z,-0.62
2018-02-20T05:20:04.470Z,-0.60
2018-02-20T05:22:31.876Z,-0.66
2018-02-20T05:24:59.294Z,-0.57
2018-02-20T05:27:26.699Z,-0.61
2018-02-20T05:29:54.119Z,-0.66
2018-02-20T05:32:21.521Z,-0.67
2018-02-20T05:34:48.946Z,-0.66
2018-02-20T05:37:16.354Z,-0.63
2018-02-20T05:39:43.766Z,-0.61
2018-02-20T05:42:11.181Z,-0.61
2018-02-20T05:44:38.594Z,-0.58
2018-02-20T05:47:06.005Z,-0.57
2018-02-20T05:49:33.410Z,-0.52
2018-02-20T05:52:00.820Z,-0.57
2018-02-20T05:54:28.249Z,-0.60
2018-02-20T05:56:55.657Z,-0.64
2018-02-20T05:59:23.076Z,-0.65
2018-02-20T06:01:50.494Z,-0.63
2018-02-20T06:04:17.912Z,-0.62
2018-02-20T06:06:45.346Z,-0.61
2018-02-20T06:09:12.724Z,-0.53
2018-02-20T06:11:40.140Z,-0.59
2018-02-20T06:14:07.829Z,-0.62
2018-02-20T06:16:35.225Z,-0.47
2018-02-20T06:19:02.663Z,-0.58
2018-02-20T06:21:30.061Z,-0.50
2018-02-20T06:23:57.479Z,-0.48
2018-02-20T06:26:24.892Z,-0.52
2018-02-20T06:28:52.305Z,-0.38
2018-02-20T06:31:19.721Z,-0.50
2018-02-20T06:33:47.131Z,-0.45
2018-02-20T06:36:14.544Z,-0.53
2018-02-20T06:38:41.953Z,-0.59
2018-02-20T06:41:09.374Z,-0.57
2018-02-20T06:43:36.774Z,-0.56
2018-02-20T06:46:04.197Z,-0.59
2018-02-20T06:48:31.600Z,-0.54
2018-02-20T06:50:59.016Z,-0.53
2018-02-20T06:53:26.430Z,-0.44
2018-02-20T06:55:53.851Z,-0.42
2018-02-20T06:58:21.257Z,-0.35
2018-02-20T07:00:48.676Z,-0.28
2018-02-20T07:03:16.092Z,-0.27
2018-02-20T07:05:43.514Z,-0.27
2018-02-20T07:08:10.919Z,-0.31
2018-02-20T07:10:38.340Z,-0.27
2018-02-20T07:13:05.779Z,-0.06
2018-02-20T07:15:33.186Z,-0.03
2018-02-20T07:18:00.585Z,0.18
2018-02-20T07:20:28.001Z,0.29
2018-02-20T07:22:55.410Z,0.27
2018-02-20T07:25:22.821Z,0.48
2018-02-20T07:27:50.232Z,0.35
2018-02-20T07:30:17.645Z,0.51
2018-02-20T07:32:45.049Z,0.58
2018-02-20T07:35:12.464Z,0.25
2018-02-20T07:37:39.871Z,0.23
2018-02-20T07:40:07.297Z,0.48
2018-02-20T07:42:34.702Z,0.48
2018-02-20T07:45:02.117Z,0.39
2018-02-20T07:47:29.520Z,0.61
2018-02-20T07:49:56.942Z,0.72
2018-02-20T07:52:24.367Z,0.88
2018-02-20T07:54:51.780Z,0.98
2018-02-20T07:57:19.195Z,0.90
2018-02-20T07:59:46.617Z,0.84
2018-02-20T08:02:14.039Z,0.89
2018-02-20T08:04:41.444Z,0.60
2018-02-20T08:07:08.857Z,0.71
2018-02-20T08:09:36.271Z,0.92
2018-02-20T08:12:03.690Z,0.83
2018-02-20T08:14:31.107Z,0.85
2018-02-20T08:16:58.515Z,1.04
2018-02-20T08:19:25.928Z,0.79
2018-02-20T08:21:53.649Z,1.03
2018-02-20T08:24:21.060Z,1.29
2018-02-20T08:26:48.477Z,0.95
2018-02-20T08:29:15.887Z,1.08
2018-02-20T08:31:43.303Z,1.05
2018-02-20T08:34:10.708Z,1.31
2018-02-20T08:36:38.125Z,1.38
2018-02-20T08:39:05.539Z,1.39
2018-02-20T08:41:32.966Z,1.32
2018-02-20T08:44:00.379Z,1.37
2018-02-20T08:46:27.793Z,1.56
2018-02-20T08:48:55.225Z,1.68
2018-02-20T08:51:22.633Z,1.83
2018-02-20T08:53:50.042Z,1.50
2018-02-20T08:56:17.464Z,1.13
2018-02-20T08:58:44.872Z,1.15
2018-02-20T09:01:12.297Z,1.01
2018-02-20T09:03:39.712Z,0.93
2018-02-20T09:06:07.121Z,0.98
2018-02-20T09:08:34.534Z,1.20
2018-02-20T09:11:01.944Z,1.25
2018-02-20T09:13:29.358Z,1.10
2018-02-20T09:15:56.770Z,1.00
2018-02-20T09:18:24.177Z,1.07
2018-02-20T09:20:51.600Z,1.13
2018-02-20T09:23:19.003Z,1.08
2018-02-20T09:25:46.422Z,1.16
2018-02-20T09:28:13.831Z,1.21
2018-02-20T09:30:41.237Z,1.22
2018-02-20T09:33:08.651Z,1.38
2018-02-20T09:35:36.050Z,1.26
2018-02-20T09:38:03.471Z,1.32
2018-02-20T09:40:30.883Z,1.11
2018-02-20T09:42:58.294Z,1.15
2018-02-20T09:45:26.072Z,1.38
2018-02-20T09:47:53.491Z,1.50
2018-02-20T09:50:21.462Z,1.35
2018-02-20T09:52:48.869Z,1.27
2018-02-20T09:55:16.285Z,1.34
2018-02-20T09:57:43.692Z,1.50
2018-02-20T10:00:11.101Z,1.54
2018-02-20T10:02:38.530Z,1.39
2018-02-20T10:05:05.933Z,1.39
2018-02-20T10:07:33.352Z,1.42
2018-02-20T10:10:00.754Z,1.71
2018-02-20T10:12:28.165Z,1.83
2018-02-20T10:14:55.568Z,1.64
2018-02-20T10:17:22.996Z,1.78
2018-02-20T10:19:50.400Z,1.72
2018-02-20T10:22:17.820Z,1.88
2018-02-20T10:24:45.228Z,1.98
2018-02-20T10:27:12.636Z,1.96
2018-02-20T10:29:40.901Z,1.77
2018-02-20T10:32:08.345Z,1.86
2018-02-20T10:34:35.724Z,1.98
2018-02-20T10:37:03.136Z,2.17
2018-02-20T10:39:30.586Z,2.05
2018-02-20T10:41:58.075Z,2.20
2018-02-20T10:44:25.475Z,2.20
2018-02-20T10:46:52.890Z,1.89
2018-02-20T10:49:20.298Z,1.66
2018-02-20T10:51:47.712Z,1.58
2018-02-20T10:54:15.122Z,1.60
2018-02-20T10:56:42.529Z,2.11
2018-02-20T10:59:09.945Z,1.95
2018-02-20T11:01:37.387Z,2.12
2018-02-20T11:04:04.775Z,2.00
2018-02-20T11:06:32.181Z,1.83
2018-02-20T11:08:59.597Z,1.99
2018-02-20T11:11:27.001Z,2.10
2018-02-20T11:13:54.421Z,2.17
2018-02-20T11:16:21.825Z,2.55
2018-02-20T11:18:49.231Z,2.17
2018-02-20T11:21:16.636Z,1.88
2018-02-20T11:23:44.044Z,2.13
2018-02-20T11:26:11.449Z,2.11
2018-02-20T11:28:38.865Z,2.27
2018-02-20T11:31:06.272Z,2.34
2018-02-20T11:33:33.690Z,2.02
2018-02-20T11:36:01.090Z,1.96
2018-02-20T11:38:28.504Z,2.02
2018-02-20T11:40:56.467Z,1.95
2018-02-20T11:43:23.877Z,1.99
2018-02-20T11:45:51.278Z,2.05
2018-02-20T11:48:18.693Z,2.08
2018-02-20T11:50:46.149Z,2.23
2018-02-20T11:53:13.556Z,2.03
2018-02-20T11:55:40.964Z,1.91
2018-02-20T11:58:08.377Z,2.06
2018-02-20T12:00:35.782Z,2.10
2018-02-20T12:03:03.197Z,2.23
2018-02-20T12:05:30.649Z,2.29
2018-02-20T12:07:58.070Z,2.21
2018-02-20T12:10:25.476Z,2.08
2018-02-20T12:12:52.888Z,2.31
2018-02-20T12:15:20.298Z,2.41
2018-02-20T12:17:47.718Z,2.26
2018-02-20T12:20:15.142Z,2.14
2018-02-20T12:22:43.105Z,1.97
2018-02-20T12:25:10.496Z,2.04
2018-02-20T12:27:37.915Z,2.28
2018-02-20T12:30:05.313Z,2.50
2018-02-20T12:32:32.713Z,2.50
2018-02-20T12:35:00.130Z,2.64
2018-02-20T12:37:28.209Z,2.26
2018-02-20T12:39:55.628Z,2.47
2018-02-20T12:42:23.030Z,2.39
2018-02-20T12:44:50.445Z,2.37
2018-02-20T12:47:17.849Z,2.46
2018-02-20T12:49:45.261Z,2.44
2018-02-20T12:52:12.666Z,2.59
2018-02-20T12:54:40.081Z,2.41
2018-02-20T12:57:07.486Z,2.43
2018-02-20T13:02:08.599Z,2.99
2018-02-20T13:04:36.007Z,3.00
2018-02-20T13:07:03.406Z,3.23
2018-02-20T13:09:30.840Z,2.88
2018-02-20T13:11:58.235Z,2.61
2018-02-20T13:14:25.648Z,2.30
2018-02-20T13:16:53.072Z,2.35
2018-02-20T13:19:20.489Z,2.58
2018-02-20T13:21:47.884Z,2.56
2018-02-20T13:24:15.317Z,2.65
2018-02-20T13:26:42.726Z,2.82
2018-02-20T13:29:10.137Z,2.66
2018-02-20T13:31:37.544Z,2.50
2018-02-20T13:34:04.960Z,2.50
2018-02-20T13:36:32.396Z,2.63
2018-02-20T13:38:59.808Z,2.44
2018-02-20T13:41:27.205Z,2.29
2018-02-20T13:43:54.622Z,2.48
2018-02-20T13:46:22.028Z,2.57
2018-02-20T13:48:49.446Z,2.42
2018-02-20T13:51:16.843Z,2.60
2018-02-20T13:53:44.261Z,3.00
2018-02-20T13:56:11.660Z,2.81
2018-02-20T13:58:39.076Z,2.64
2018-02-20T14:01:06.469Z,2.60
2018-02-20T14:03:34.872Z,2.77
2018-02-20T14:06:02.222Z,3.11
2018-02-20T14:08:29.630Z,2.78
2018-02-20T14:10:57.037Z,2.66
2018-02-20T14:13:24.462Z,2.57
2018-02-20T14:15:51.882Z,2.46
2018-02-20T14:18:19.287Z,2.60
2018-02-20T14:20:46.704Z,2.54
2018-02-20T14:23:14.096Z,2.52
2018-02-20T14:25:41.516Z,2.60
2018-02-20T14:28:08.922Z,2.42
2018-02-20T14:30:36.335Z,2.50
2018-02-20T14:33:03.736Z,2.45
2018-02-20T14:35:31.141Z,2.39
2018-02-20T14:37:58.550Z,2.44
2018-02-20T14:40:25.969Z,2.41
2018-02-20T14:42:53.367Z,2.38
2018-02-20T14:45:20.777Z,2.39
2018-02-20T14:47:48.182Z,2.29
2018-02-20T14:50:15.594Z,2.37
2018-02-20T14:52:42.996Z,2.21
2018-02-20T14:55:10.410Z,2.21
2018-02-20T14:57:37.814Z,2.09
2018-02-20T15:00:05.235Z,2.00
2018-02-20T15:02:32.633Z,2.10
2018-02-20T15:05:00.048Z,2.09
2018-02-20T15:07:27.445Z,2.02
2018-02-20T15:09:54.860Z,2.09
2018-02-20T15:12:22.258Z,1.91
2018-02-20T15:14:49.673Z,1.92
2018-02-20T15:17:17.077Z,1.97
2018-02-20T15:19:44.489Z,1.91
2018-02-20T15:22:11.892Z,1.90
2018-02-20T15:24:39.313Z,1.81
2018-02-20T15:27:06.720Z,1.84
2018-02-20T15:29:34.134Z,1.76
2018-02-20T15:32:01.543Z,1.73
2018-02-20T15:34:28.956Z,1.68
2018-02-20T15:36:56.371Z,1.66
2018-02-20T15:39:23.771Z,1.66
2018-02-20T15:41:51.183Z,1.70
2018-02-20T15:44:18.593Z,1.65
2018-02-20T15:46:46.006Z,1.60
2018-02-20T15:49:13.401Z,1.57
2018-02-20T15:51:40.818Z,1.47
2018-02-20T15:54:09.250Z,1.51
2018-02-20T15:56:36.700Z,1.52
2018-02-20T15:59:04.056Z,1.42
2018-02-20T16:01:31.463Z,1.35
2018-02-20T16:03:58.864Z,1.35
2018-02-20T16:06:26.273Z,1.39
2018-02-20T16:08:53.703Z,1.37
2018-02-20T16:11:21.144Z,1.31
2018-02-20T16:13:48.559Z,1.27
2018-02-20T16:16:16.377Z,1.32
2018-02-20T16:18:43.786Z,1.26
2018-02-20T16:21:11.198Z,1.29
2018-02-20T16:23:38.604Z,1.18
2018-02-20T16:26:06.013Z,1.18
2018-02-20T16:28:33.412Z,1.24
2018-02-20T16:31:00.830Z,1.22
2018-02-20T16:33:28.229Z,1.15
2018-02-20T16:35:55.649Z,1.10
2018-02-20T16:38:23.062Z,1.07
2018-02-20T16:40:50.468Z,1.02
2018-02-20T16:43:17.874Z,0.95
2018-02-20T16:45:45.285Z,0.96
2018-02-20T16:48:13.223Z,0.94
2018-02-20T16:50:41.614Z,0.91
2018-02-20T16:53:09.015Z,0.93
2018-02-20T16:55:36.428Z,0.87
2018-02-20T16:58:03.837Z,0.92
2018-02-20T17:00:31.249Z,0.82
2018-02-20T17:02:58.672Z,0.82
2018-02-20T17:05:26.073Z,0.78
2018-02-20T17:07:53.476Z,0.82
2018-02-20T17:10:20.918Z,0.77
2018-02-20T17:12:48.309Z,0.74
2018-02-20T17:15:15.714Z,0.71
2018-02-20T17:17:43.125Z,0.69
2018-02-20T17:20:10.586Z,0.65
2018-02-20T17:22:37.993Z,0.66
2018-02-20T17:25:05.394Z,0.62
2018-02-20T17:27:32.802Z,0.64
2018-02-20T17:30:00.218Z,0.64
2018-02-20T17:32:27.645Z,0.64
2018-02-20T17:34:55.042Z,0.61
2018-02-20T17:37:22.453Z,0.61
2018-02-20T17:39:49.862Z,0.53
2018-02-20T17:42:17.271Z,0.50
2018-02-20T17:44:44.677Z,0.53
2018-02-20T17:47:12.101Z,0.52
2018-02-20T17:49:39.492Z,0.42
2018-02-20T17:52:06.906Z,0.47
2018-02-20T17:54:34.308Z,0.42
2018-02-20T17:57:01.725Z,0.48
2018-02-20T17:59:29.127Z,0.46
2018-02-20T18:01:56.532Z,0.39
2018-02-20T18:04:23.932Z,0.31
2018-02-20T18:06:51.351Z,0.29
2018-02-20T18:09:18.752Z,0.32
2018-02-20T18:11:46.163Z,0.34
2018-02-20T18:14:13.574Z,0.31
2018-02-20T18:16:40.974Z,0.34
2018-02-20T18:19:08.375Z,0.33
2018-02-20T18:21:35.787Z,0.30
2018-02-20T18:24:03.180Z,0.29
2018-02-20T18:26:30.593Z,0.19
2018-02-20T18:28:57.996Z,0.15
2018-02-20T18:31:25.409Z,0.13
2018-02-20T18:33:52.818Z,0.19
2018-02-20T18:36:20.229Z,0.05
2018-02-20T18:38:47.627Z,0.00
2018-02-20T18:41:15.033Z,0.04
2018-02-20T18:43:42.441Z,-0.01
2018-02-20T18:46:09.850Z,-0.02
2018-02-20T18:51:10.944Z,-0.05
2018-02-20T18:53:38.365Z,-0.09
2018-02-20T18:56:05.773Z,-0.04
2018-02-20T18:58:33.184Z,-0.05
2018-02-20T19:01:00.599Z,-0.04
2018-02-20T19:03:28.005Z,-0.04
2018-02-20T19:05:56.022Z,-0.08
2018-02-20T19:08:23.424Z,0.00
2018-02-20T19:10:50.826Z,-0.10
2018-02-20T19:13:18.809Z,-0.08
2018-02-20T19:15:46.208Z,-0.06
2018-02-20T19:18:13.630Z,-0.06
2018-02-20T19:20:41.041Z,-0.06
2018-02-20T19:23:08.461Z,-0.08
2018-02-20T19:25:35.864Z,-0.02
2018-02-20T19:28:03.529Z,-0.07
2018-02-20T19:30:30.929Z,-0.09
2018-02-20T19:32:58.346Z,-0.10
2018-02-20T19:35:25.744Z,-0.12
2018-02-20T19:37:53.166Z,-0.11
2018-02-20T19:40:20.957Z,-0.16
2018-02-20T19:42:48.376Z,-0.16
2018-02-20T19:45:15.780Z,-0.21
2018-02-20T19:47:43.202Z,-0.21
2018-02-20T19:50:10.608Z,-0.24
2018-02-20T19:52:38.026Z,-0.24
2018-02-20T19:55:05.433Z,-0.23
2018-02-20T19:57:32.851Z,-0.27
2018-02-20T20:00:00.717Z,-0.22
2018-02-20T20:02:28.140Z,-0.20
2018-02-20T20:04:55.836Z,-0.16
2018-02-20T20:07:23.253Z,-0.18
2018-02-20T20:09:51.406Z,-0.13
2018-02-20T20:12:18.820Z,-0.14
2018-02-20T20:14:46.228Z,-0.15
2018-02-20T20:17:14.229Z,-0.16
2018-02-20T20:19:41.633Z,-0.09
2018-02-20T20:22:09.070Z,-0.07
2018-02-20T20:24:36.500Z,-0.15
2018-02-20T20:27:03.867Z,-0.08
2018-02-20T20:29:31.281Z,-0.06
2018-02-20T20:31:58.685Z,-0.10
2018-02-20T20:34:26.104Z,-0.12
2018-02-20T20:36:53.509Z,-0.10
2018-02-20T20:39:21.717Z,-0.03
2018-02-20T20:41:49.125Z,0.00
2018-02-20T20:44:16.520Z,0.10
2018-02-20T20:46:43.925Z,0.27
2018-02-20T20:49:11.518Z,0.27
2018-02-20T20:51:39.228Z,0.23
2018-02-20T20:54:06.649Z,0.17
2018-02-20T20:56:34.049Z,0.14
2018-02-20T20:59:02.463Z,0.00
2018-02-20T21:01:29.869Z,-0.07
2018-02-20T21:03:57.285Z,-0.01
2018-02-20T21:06:24.685Z,-0.02
2018-02-20T21:08:52.315Z,0.05
2018-02-20T21:11:19.708Z,0.19
2018-02-20T21:13:47.127Z,-0.15
2018-02-20T21:16:14.533Z,-0.15
2018-02-20T21:18:41.951Z,-0.23
2018-02-20T21:21:09.352Z,-0.30
2018-02-20T21:23:36.770Z,-0.44
2018-02-20T21:26:05.017Z,-0.55
2018-02-20T21:28:32.430Z,-0.51
2018-02-20T21:30:59.835Z,-0.64
2018-02-20T21:33:27.263Z,-0.61
2018-02-20T21:35:54.669Z,-0.63
2018-02-20T21:38:22.086Z,-0.73
2018-02-20T21:40:49.498Z,-0.65
2018-02-20T21:43:16.909Z,-0.77
2018-02-20T21:45:44.317Z,-0.80
2018-02-20T21:48:11.935Z,-0.68
2018-02-20T21:50:39.341Z,-0.55
2018-02-20T21:53:06.758Z,-0.62
2018-02-20T21:55:34.165Z,-0.73
2018-02-20T21:58:01.570Z,-0.72
2018-02-20T22:02:39.848Z,-0.74
2018-02-20T22:05:07.256Z,-0.78
2018-02-20T22:07:34.672Z,-0.78
2018-02-20T22:10:02.096Z,-0.91
2018-02-20T22:12:29.503Z,-0.97
2018-02-20T22:14:56.929Z,-0.88
2018-02-20T22:17:25.378Z,-0.87
2018-02-20T22:19:52.799Z,-0.91
2018-02-20T22:22:20.202Z,-0.91
2018-02-20T22:24:47.618Z,-0.93
2018-02-20T22:27:15.021Z,-0.83
2018-02-20T22:29:42.445Z,-0.97
2018-02-20T22:32:09.856Z,-0.92
2018-02-20T22:34:37.268Z,-0.90
2018-02-20T22:37:04.682Z,-0.98
2018-02-20T22:39:32.107Z,-0.91
2018-02-20T22:41:59.506Z,-0.92
2018-02-20T22:44:26.920Z,-0.91
2018-02-20T22:46:54.332Z,-0.89
2018-02-20T22:49:21.759Z,-0.75
2018-02-20T22:51:49.167Z,-0.83
2018-02-20T22:54:16.586Z,-0.86
2018-02-20T22:56:43.993Z,-0.84
2018-02-20T22:59:11.409Z,-0.82
2018-02-20T23:01:38.814Z,-0.82
2018-02-20T23:04:06.229Z,-0.79
2018-02-20T23:06:33.637Z,-0.78
2018-02-20T23:09:01.059Z,-0.78
2018-02-20T23:11:40.144Z,-0.75
2018-02-20T23:14:07.561Z,-0.76
2018-02-20T23:16:34.982Z,-0.72
2018-02-20T23:19:02.406Z,-0.69
2018-02-20T23:21:29.812Z,-0.67
2018-02-20T23:23:57.281Z,-0.77
2018-02-20T23:26:24.704Z,-0.77
2018-02-20T23:28:52.110Z,-0.77
2018-02-20T23:31:19.525Z,-0.81
2018-02-20T23:33:46.936Z,-0.75
2018-02-20T23:36:14.357Z,-0.71
2018-02-20T23:38:41.769Z,-0.76
2018-02-20T23:41:09.198Z,-0.69
2018-02-20T23:43:36.609Z,-0.78
2018-02-20T23:46:04.021Z,-0.73
2018-02-20T23:48:31.430Z,-0.70
2018-02-20T23:51:04.581Z,-0.67
2018-02-20T23:53:32.236Z,-0.75
2018-02-20T23:55:59.656Z,-0.64
2018-02-20T23:58:27.061Z,-0.76
